Hundvaag 1 weather for Dec 2008
Month no. 258
Obs.
Da.
Temp. Dew Point Precip. Wind
Speed
Wind gusts Cloud cover Press. Humidity Wind dir. Sunny OPT
01.12.2008 1,6   0,0 3,5   8 1002,0 92,0 22,5 1 75,0 %
02.12.2008 1,9   0,0 0,0   8 1000,0 92,0 315,0 1 75,0 %
03.12.2008 -0,9   0,0 2,3   10 994,9 100,0 0,0 1 77,5 %
04.12.2008 1,1   0,0 4,6   8 989,8 86,0 180,0 1 72,5 %
05.12.2008 4,5   0,0 10,4   1 986,1 60,0 90,0   55,0 %
06.12.2008 3,9   0,0 1,6   1 1003,0 86,0 270,0   60,0 %
07.12.2008 2,9   0,0 1,2   1 1014,9 92,0 45,0   60,0 %
08.12.2008 7,1   5,7 15,0   6 1007,1 87,0 225,0 1 62,5 %
09.12.2008 3,1   5,6 0,0   3 1010,2 80,0 315,0 1 62,5 %
10.12.2008 2,1   7,0 3,5   10 1008,1 86,0 90,0 1 75,0 %
11.12.2008 -1,1   0,0 2,3   10 1015,9 92,0 45,0 1 77,5 %
12.12.2008 1,6   0,0 2,3   10 1013,9 74,0 22,5 1 80,0 %
13.12.2008 4,8   0,0 5,0   6 1006,1 69,0 157,5 1 70,0 %
14.12.2008 4,3   0,0 5,0   1 1009,1 66,0 0,0   57,5 %
15.12.2008 3,4   0,0 0,0   0 1019,0 80,0 157,5   57,5 %
16.12.2008 5,8   0,0 2,0   0 1011,8 89,0 135,0   60,0 %
17.12.2008 7,0   14,2 0,0   4 997,6 97,0 157,5 1 60,0 %
18.12.2008 9,1   8,8 4,8   0 997,9 97,0 135,0   55,0 %
19.12.2008 4,4   1,8 1,6   2 1006,0 94,0 225,0   62,5 %
20.12.2008 7,7   17,0 6,4   0 988,0 92,0 337,5   47,5 %
21.12.2008 4,8   1,4 0,0   0 1013,1 85,0 292,5   57,5 %
22.12.2008 7,9   6,0 14,5   2 1009,4 81,0 202,5   55,0 %
23.12.2008 5,3   0,2 0,0   0 1029,3 83,0 292,5   60,0 %
24.12.2008 6,6   1,1 4,8   9 1027,3 90,0 67,5 1 80,0 %
25.12.2008 4,6   0,0 0,0   10 1039,5 62,0 157,5 1 82,5 %
26.12.2008 3,6   0,0 0,0   2 1044,9 85,0 157,5   62,5 %
27.12.2008 1,4   0,0 0,0   10 1041,5 93,0 157,5 1 80,0 %
28.12.2008 1,6   0,0 0,0   10 1039,8 92,0 45,0 1 80,0 %
29.12.2008 3,4   0,0 0,0   0 1038,5 78,0 67,5   57,5 %
30.12.2008 3,3   0,0 1,6   0 1035,4 68,0 157,5   57,5 %
31.12.2008 2,6   0,0 0,0   1 1028,7 79,0 112,5   60,0 %
Avrg/Sum 3,9   68,8 3,0   4,3 1013,8 84,1 149,5 15 65,6 %